Wetterdaten: aktuell Mittwoch, 18.09.2019 21:25
Datum Zeit Temp. A. Boden 1m Boden 0,5 Feuchte A. Luftdruck Regen Wind Richtung Richtung Sonnenschein Helligkeit Solar Taupunkt Windchill
18.09.2019 21:25 10,9 C 16,6 C 16,1 C 57 % 1025 hPa 0,0 l/m 0,0 km/h (0 Bft) N 355 0 min 0 lux 0 W/m 2,7 C 10,9 C
18.09.2019 21:21 11,0 C 16,6 C 16,1 C 56 % 1025 hPa 0,0 l/m 0,0 km/h (0 Bft) N 355 0 min 0 lux 0 W/m 2,6 C 11,0 C
18.09.2019 21:16 11,1 C 16,6 C 16,0 C 55 % 1025 hPa 0,0 l/m 0,0 km/h (0 Bft) N 355 0 min 0 lux 0 W/m 2,4 C 11,1 C
18.09.2019 21:10 11,3 C 16,6 C 16,1 C 53 % 1025 hPa 0,0 l/m 0,0 km/h (0 Bft) N 355 0 min 0 lux 0 W/m 2,1 C 11,3 C
18.09.2019 21:05 11,3 C 16,6 C 16,1 C 53 % 1025 hPa 0,0 l/m 1,1 km/h (1 Bft) N 355 0 min 0 lux 0 W/m 2,1 C 11,3 C
18.09.2019 21:01 11,5 C 16,6 C 16,1 C 52 % 1025 hPa 0,0 l/m 1,1 km/h (1 Bft) N 355 0 min 0 lux 0 W/m 2,0 C 11,5 C
18.09.2019 20:55 11,5 C 16,6 C 16,0 C 51 % 1025 hPa 0,0 l/m 0,0 km/h (0 Bft) N 355 0 min 0 lux 0 W/m 1,7 C 11,5 C
18.09.2019 20:51 11,7 C 16,6 C 16,1 C 51 % 1025 hPa 0,0 l/m 0,0 km/h (0 Bft) N 355 0 min 0 lux 0 W/m 1,9 C 11,7 C
18.09.2019 20:46 11,8 C 16,6 C 16,1 C 50 % 1025 hPa 0,0 l/m 0,1 km/h (0 Bft) N 355 0 min 0 lux 0 W/m 1,7 C 11,8 C
18.09.2019 20:41 11,9 C 16,6 C 16,1 C 50 % 1025 hPa 0,0 l/m 0,1 km/h (0 Bft) N 355 0 min 0 lux 0 W/m 1,8 C 11,9 C
18.09.2019 20:35 12,0 C 16,6 C 16,1 C 49 % 1025 hPa 0,0 l/m 0,1 km/h (0 Bft) N 355 0 min 0 lux 0 W/m 1,6 C 12,0 C
18.09.2019 20:31 12,1 C 16,6 C 16,1 C 49 % 1025 hPa 0,0 l/m 1,2 km/h (1 Bft) N 355 0 min 0 lux 0 W/m 1,7 C 12,1 C
18.09.2019 20:26 12,2 C 16,6 C 16,1 C 49 % 1024 hPa 0,0 l/m 0,0 km/h (0 Bft) N 355 0 min 0 lux 0 W/m 1,8 C 12,2 C
18.09.2019 20:21 12,4 C 16,6 C 16,0 C 48 % 1024 hPa 0,0 l/m 0,0 km/h (0 Bft) N 355 0 min 0 lux 0 W/m 1,7 C 12,4 C
18.09.2019 20:15 12,6 C 16,6 C 16,1 C 47 % 1024 hPa 0,0 l/m 0,0 km/h (0 Bft) N 355 0 min 0 lux 0 W/m 1,6 C 12,6 C
18.09.2019 20:11 12,7 C 16,6 C 16,0 C 47 % 1024 hPa 0,0 l/m 0,0 km/h (0 Bft) N 355 0 min 0 lux 0 W/m 1,7 C 12,7 C
18.09.2019 20:06 12,9 C 16,6 C 16,1 C 47 % 1024 hPa 0,0 l/m 0,0 km/h (0 Bft) N 355 0 min 1 lux 0 W/m 1,9 C 12,9 C
18.09.2019 20:00 13,1 C 16,6 C 16,1 C 46 % 1024 hPa 0,0 l/m 0,2 km/h (0 Bft) N 355 0 min 4 lux 0 W/m 1,7 C 13,1 C
18.09.2019 19:56 13,4 C 16,6 C 16,1 C 46 % 1024 hPa 0,0 l/m 0,0 km/h (0 Bft) N 355 0 min 9 lux 0 W/m 2,0 C 13,4 C
18.09.2019 19:51 13,4 C 16,6 C 16,1 C 46 % 1024 hPa 0,0 l/m 0,0 km/h (0 Bft) N 355 0 min 16 lux 0 W/m 2,0 C 13,4 C
18.09.2019 19:46 13,7 C 16,6 C 16,1 C 45 % 1024 hPa 0,0 l/m 0,6 km/h (0 Bft) N 355 0 min 36 lux 0 W/m 2,0 C 13,7 C
18.09.2019 19:40 13,8 C 16,6 C 16,1 C 45 % 1024 hPa 0,0 l/m 0,0 km/h (0 Bft) N 355 0 min 78 lux 0 W/m 2,1 C 13,8 C
18.09.2019 19:36 13,9 C 16,6 C 16,1 C 44 % 1024 hPa 0,0 l/m 0,0 km/h (0 Bft) N 355 0 min 148 lux 0 W/m 1,9 C 13,9 C
18.09.2019 19:31 14,0 C 16,6 C 16,1 C 44 % 1024 hPa 0,0 l/m 0,0 km/h (0 Bft) N 355 0 min 197 lux 0 W/m 1,9 C 14,0 C
18.09.2019 19:26 14,2 C 16,6 C 16,1 C 43 % 1024 hPa 0,0 l/m 0,0 km/h (0 Bft) N 355 0 min 453 lux 0 W/m 1,8 C 14,2 C
18.09.2019 19:20 14,3 C 16,6 C 16,1 C 42 % 1024 hPa 0,0 l/m 2,4 km/h (1 Bft) N 355 0 min 763 lux 0 W/m 1,6 C 14,3 C
18.09.2019 19:16 14,4 C 16,6 C 16,1 C 41 % 1024 hPa 0,0 l/m 2,4 km/h (1 Bft) N 355 0 min 763 lux 1 W/m 1,3 C 14,4 C
18.09.2019 19:11 14,6 C 16,6 C 16,1 C 40 % 1024 hPa 0,0 l/m 0,0 km/h (0 Bft) N 355 5 min 1,34 klux 1 W/m 1,2 C 14,6 C
18.09.2019 19:06 14,8 C 16,6 C 16,1 C 40 % 1023 hPa 0,0 l/m 0,0 km/h (0 Bft) N 355 5 min 1,83 klux 2 W/m 1,3 C 14,8 C
18.09.2019 19:01 15,0 C 16,6 C 16,1 C 39 % 1023 hPa 0,0 l/m 2,9 km/h (1 Bft) N 355 5 min 2,91 klux 3 W/m 1,2 C 15,0 C
18.09.2019 18:56 15,3 C 16,6 C 16,1 C 39 % 1023 hPa 0,0 l/m 0,0 km/h (0 Bft) N 355 0 min 2,91 klux 4 W/m 1,4 C 15,3 C
18.09.2019 18:51 15,4 C 16,6 C 16,1 C 38 % 1023 hPa 0,0 l/m 5,4 km/h (1 Bft) N 355 0 min 3,50 klux 5 W/m 1,2 C 15,4 C
18.09.2019 18:45 15,6 C 16,6 C 16,1 C 38 % 1023 hPa 0,0 l/m 0,3 km/h (0 Bft) N 355 0 min 3,68 klux 6 W/m 1,3 C 15,6 C
18.09.2019 18:41 15,8 C 16,6 C 16,1 C 38 % 1023 hPa 0,0 l/m 3,0 km/h (1 Bft) N22.5 355 0 min 4,75 klux 8 W/m 1,5 C 15,8 C
18.09.2019 18:36 16,1 C 16,6 C 16,1 C 37 % 1023 hPa 0,0 l/m 3,0 km/h (1 Bft) N 355 0 min 6,29 klux 11 W/m 1,4 C 16,1 C
18.09.2019 18:31 16,2 C 16,6 C 16,1 C 36 % 1023 hPa 0,0 l/m 2,3 km/h (1 Bft) N 355 0 min 5,74 klux 11 W/m 1,1 C 16,2 C
18.09.2019 18:25 16,5 C 16,6 C 16,1 C 35 % 1023 hPa 0,0 l/m 1,6 km/h (1 Bft) N 355 0 min 6,63 klux 14 W/m 1,0 C 16,5 C
18.09.2019 18:21 17,2 C 16,6 C 16,1 C 32 % 1023 hPa 0,0 l/m 3,4 km/h (1 Bft) N 355 5 min 15,5 klux 31 W/m 0,4 C 17,2 C
18.09.2019 18:16 17,2 C 16,6 C 16,1 C 32 % 1023 hPa 0,0 l/m 2,7 km/h (1 Bft) N 355 5 min 15,6 klux 34 W/m 0,4 C 17,2 C
18.09.2019 18:11 17,7 C 16,6 C 16,1 C 32 % 1023 hPa 0,0 l/m 7,4 km/h (2 Bft) N 355 0 min 6,58 klux 16 W/m 0,8 C 17,7 C
18.09.2019 18:05 18,1 C 16,6 C 16,1 C 30 % 1023 hPa 0,0 l/m 5,0 km/h (1 Bft) N 355 4 min 19,4 klux 45 W/m 0,3 C 18,1 C
18.09.2019 18:01 18,4 C 16,6 C 16,1 C 29 % 1023 hPa 0,0 l/m 9,5 km/h (2 Bft) N 355 0 min 8,19 klux 22 W/m 0,1 C 18,4 C
18.09.2019 17:56 18,7 C 16,6 C 16,1 C 26 % 1023 hPa 0,0 l/m 9,5 km/h (2 Bft) N 355 0 min 8,19 klux 23 W/m -1,2 C 18,7 C
18.09.2019 17:50 19,1 C 16,6 C 16,1 C 27 % 1023 hPa 0,0 l/m 10,8 km/h (2 Bft) N 355 4 min 25,8 klux 67 W/m -0,3 C 19,1 C
18.09.2019 17:46 19,2 C 16,6 C 16,1 C 26 % 1023 hPa 0,0 l/m 6,5 km/h (2 Bft) N22.5 355 5 min 25,8 klux 70 W/m -0,8 C 19,2 C
18.09.2019 17:41 19,3 C 16,6 C 16,2 C 26 % 1023 hPa 0,0 l/m 3,2 km/h (1 Bft) N 355 5 min 25,8 klux 73 W/m -0,7 C 19,3 C
18.09.2019 17:36 19,6 C 16,6 C 16,1 C 25 % 1023 hPa 0,0 l/m 1,7 km/h (1 Bft) N22.5 355 6 min 27,8 klux 81 W/m -1,0 C 19,6 C
18.09.2019 17:30 19,7 C 16,6 C 16,1 C 24 % 1023 hPa 0,0 l/m 7,3 km/h (2 Bft) N22.5 360 4 min 30,5 klux 93 W/m -1,4 C 19,7 C
18.09.2019 17:26 19,8 C 16,6 C 16,2 C 24 % 1023 hPa 0,0 l/m 7,0 km/h (2 Bft) N 355 5 min 32,7 klux 102 W/m -1,3 C 19,8 C
18.09.2019 17:21 19,6 C 16,6 C 16,1 C 26 % 1023 hPa 0,0 l/m 4,5 km/h (1 Bft) N22.5 360 5 min 34,3 klux 111 W/m -0,4 C 19,6 C
18.09.2019 17:16 19,6 C 16,6 C 16,2 C 24 % 1023 hPa 0,0 l/m 13,3 km/h (3 Bft) N 355 6 min 35,3 klux 118 W/m -1,5 C 19,6 C
18.09.2019 17:10 19,7 C 16,6 C 16,2 C 26 % 1023 hPa 0,0 l/m 5,9 km/h (2 Bft) N 355 4 min 35,5 klux 124 W/m -0,3 C 19,7 C
18.09.2019 17:06 19,8 C 16,6 C 16,1 C 26 % 1023 hPa 0,0 l/m 9,6 km/h (2 Bft) N 355 5 min 32,1 klux 116 W/m -0,3 C 19,8 C
18.09.2019 17:01 19,9 C 16,6 C 16,1 C 24 % 1023 hPa 0,0 l/m 12,0 km/h (2 Bft) N 355 6 min 38,0 klux 139 W/m -1,3 C 19,9 C
18.09.2019 16:55 20,0 C 16,6 C 16,1 C 26 % 1023 hPa 0,0 l/m 7,0 km/h (2 Bft) N 355 4 min 39,8 klux 151 W/m -0,1 C 20,0 C
18.09.2019 16:51 19,8 C 16,6 C 16,1 C 27 % 1023 hPa 0,0 l/m 7,0 km/h (2 Bft) N 355 5 min 40,5 klux 157 W/m 0,3 C 19,8 C
18.09.2019 16:46 19,7 C 16,6 C 16,1 C 27 % 1023 hPa 0,0 l/m 6,7 km/h (2 Bft) N 355 5 min 42,4 klux 169 W/m 0,2 C 19,7 C
18.09.2019 16:41 19,6 C 16,6 C 16,1 C 29 % 1023 hPa 0,0 l/m 6,7 km/h (2 Bft) N 355 6 min 43,4 klux 177 W/m 1,1 C 19,6 C
18.09.2019 16:35 19,6 C 16,6 C 16,1 C 29 % 1023 hPa 0,0 l/m 9,2 km/h (2 Bft) N 355 4 min 45,7 klux 192 W/m 1,1 C 19,6 C
18.09.2019 16:31 19,5 C 16,6 C 16,2 C 27 % 1023 hPa 0,0 l/m 9,2 km/h (2 Bft) N 355 5 min 46,4 klux 199 W/m 0,0 C 19,5 C
18.09.2019 16:26 19,4 C 16,6 C 16,1 C 27 % 1023 hPa 0,0 l/m 4,3 km/h (1 Bft) N 355 5 min 45,9 klux 201 W/m -0,1 C 19,4 C
18.09.2019 16:21 19,3 C 16,6 C 16,1 C 28 % 1023 hPa 0,0 l/m 4,5 km/h (1 Bft) N 355 6 min 46,2 klux 207 W/m 0,3 C 19,3 C
18.09.2019 16:15 18,7 C 16,6 C 16,2 C 29 % 1023 hPa 0,0 l/m 11,2 km/h (2 Bft) N 355 4 min 47,3 klux 218 W/m 0,3 C 18,7 C
18.09.2019 16:11 18,8 C 16,6 C 16,2 C 26 % 1023 hPa 0,0 l/m 12,0 km/h (2 Bft) N 355 5 min 48,4 klux 226 W/m -1,1 C 18,8 C
18.09.2019 16:06 18,6 C 16,6 C 16,2 C 29 % 1023 hPa 0,0 l/m 9,0 km/h (2 Bft) N 355 6 min 49,2 klux 234 W/m 0,2 C 18,6 C
18.09.2019 16:00 18,2 C 16,6 C 16,2 C 31 % 1023 hPa 0,0 l/m 10,0 km/h (2 Bft) N22.5 355 4 min 48,8 klux 238 W/m 0,8 C 18,2 C
18.09.2019 15:56 17,6 C 16,6 C 16,1 C 33 % 1024 hPa 0,0 l/m 11,1 km/h (2 Bft) N22.5 355 5 min 49,1 klux 243 W/m 1,1 C 17,6 C
18.09.2019 15:51 17,0 C 16,6 C 16,1 C 35 % 1024 hPa 0,0 l/m 7,9 km/h (2 Bft) N22.5 355 5 min 50,3 klux 253 W/m 1,4 C 17,0 C
18.09.2019 15:46 16,5 C 16,6 C 16,1 C 36 % 1024 hPa 0,0 l/m 12,6 km/h (3 Bft) N22.5 360 6 min 51,0 klux 261 W/m 1,4 C 16,5 C
18.09.2019 15:40 16,7 C 16,6 C 16,1 C 34 % 1024 hPa 0,0 l/m 12,6 km/h (3 Bft) N22.5 360 0 min 11,3 klux 65 W/m 0,8 C 16,7 C
18.09.2019 15:36 17,1 C 16,6 C 16,2 C 33 % 1024 hPa 0,0 l/m 8,2 km/h (2 Bft) N 355 0 min 12,5 klux 73 W/m 0,7 C 17,1 C
18.09.2019 15:31 16,9 C 16,6 C 16,2 C 36 % 1024 hPa 0,0 l/m 12,4 km/h (3 Bft) N22.5 355 5 min 55,0 klux 294 W/m 1,7 C 16,9 C
18.09.2019 15:26 16,9 C 16,6 C 16,2 C 36 % 1024 hPa 0,0 l/m 4,8 km/h (1 Bft) N 355 6 min 54,4 klux 295 W/m 1,7 C 16,9 C
18.09.2019 15:20 17,4 C 16,6 C 16,2 C 32 % 1024 hPa 0,0 l/m 5,7 km/h (1 Bft) N 355 0 min 18,6 klux 108 W/m 0,5 C 17,4 C
18.09.2019 15:16 17,3 C 16,6 C 16,1 C 33 % 1024 hPa 0,0 l/m 11,4 km/h (2 Bft) N22.5 360 0 min 14,2 klux 86 W/m 0,9 C 17,3 C
18.09.2019 15:11 17,8 C 16,6 C 16,2 C 33 % 1024 hPa 0,0 l/m 12,6 km/h (3 Bft) N 355 5 min 49,2 klux 278 W/m 1,3 C 17,8 C
18.09.2019 15:06 17,9 C 16,6 C 16,1 C 35 % 1024 hPa 0,0 l/m 8,3 km/h (2 Bft) N 355 0 min 22,3 klux 132 W/m 2,2 C 17,9 C
18.09.2019 15:01 17,0 C 16,6 C 16,2 C 37 % 1024 hPa 0,0 l/m 5,5 km/h (1 Bft) N 355 5 min 58,2 klux 335 W/m 2,2 C 17,0 C
18.09.2019 14:56 16,6 C 16,6 C 16,2 C 37 % 1024 hPa 0,0 l/m 0,9 km/h (0 Bft) N 355 5 min 58,2 klux 339 W/m 1,9 C 16,6 C
18.09.2019 14:51 16,9 C 16,6 C 16,2 C 34 % 1024 hPa 0,0 l/m 10,3 km/h (2 Bft) N22.5 355 0 min 14,1 klux 90 W/m 0,9 C 16,9 C
18.09.2019 14:45 17,5 C 16,6 C 16,2 C 31 % 1024 hPa 0,0 l/m 8,2 km/h (2 Bft) N22.5 355 0 min 14,0 klux 90 W/m 0,2 C 17,5 C
18.09.2019 14:41 17,9 C 16,6 C 16,2 C 31 % 1024 hPa 0,0 l/m 11,0 km/h (2 Bft) N22.5 355 5 min 59,9 klux 359 W/m 0,5 C 17,9 C
18.09.2019 14:36 18,1 C 16,6 C 16,2 C 32 % 1024 hPa 0,0 l/m 10,9 km/h (2 Bft) N 355 5 min 62,7 klux 379 W/m 1,2 C 18,1 C
18.09.2019 14:31 18,2 C 16,6 C 16,3 C 31 % 1024 hPa 0,0 l/m 10,8 km/h (2 Bft) N 355 6 min 66,1 klux 402 W/m 0,8 C 18,2 C
18.09.2019 14:25 18,1 C 16,6 C 16,3 C 30 % 1024 hPa 0,0 l/m 14,6 km/h (3 Bft) N22.5 355 4 min 64,0 klux 393 W/m 0,3 C 18,1 C
18.09.2019 14:21 18,3 C 16,6 C 16,3 C 30 % 1024 hPa 0,0 l/m 17,6 km/h (3 Bft) N22.5 355 5 min 64,8 klux 400 W/m 0,4 C 18,3 C
18.09.2019 14:16 18,3 C 16,6 C 16,2 C 33 % 1024 hPa 0,0 l/m 18,5 km/h (3 Bft) N22.5 355 5 min 67,8 klux 421 W/m 1,8 C 18,3 C
18.09.2019 14:11 18,0 C 16,6 C 16,2 C 33 % 1024 hPa 0,0 l/m 12,1 km/h (2 Bft) N22.5 360 6 min 67,0 klux 418 W/m 1,5 C 18,0 C
18.09.2019 14:05 17,6 C 16,6 C 16,2 C 36 % 1024 hPa 0,0 l/m 10,5 km/h (2 Bft) N22.5 360 4 min 67,9 klux 427 W/m 2,4 C 17,6 C
18.09.2019 14:01 17,1 C 16,6 C 16,3 C 36 % 1024 hPa 0,0 l/m 5,7 km/h (1 Bft) N 355 5 min 71,7 klux 452 W/m 1,9 C 17,1 C
18.09.2019 13:56 17,6 C 16,6 C 16,2 C 36 % 1024 hPa 0,0 l/m 11,8 km/h (2 Bft) N 355 0 min 24,6 klux 161 W/m 2,4 C 17,6 C
18.09.2019 13:50 17,3 C 16,6 C 16,3 C 37 % 1025 hPa 0,0 l/m 11,8 km/h (2 Bft) N 355 5 min 70,9 klux 451 W/m 2,5 C 17,3 C
18.09.2019 13:45 16,6 C 16,6 C 16,2 C 40 % 1025 hPa 0,0 l/m 8,3 km/h (2 Bft) N 355 4 min 73,7 klux 470 W/m 2,9 C 16,6 C
18.09.2019 13:41 16,2 C 16,6 C 16,3 C 40 % 1025 hPa 0,0 l/m 7,8 km/h (2 Bft) N22.5 355 5 min 72,7 klux 465 W/m 2,6 C 16,2 C
18.09.2019 13:36 16,2 C 16,6 C 16,3 C 40 % 1025 hPa 0,0 l/m 17,3 km/h (3 Bft) N45 355 5 min 76,0 klux 487 W/m 2,6 C 16,2 C
18.09.2019 13:31 15,7 C 16,6 C 16,3 C 41 % 1025 hPa 0,0 l/m 8,7 km/h (2 Bft) N 355 6 min 74,3 klux 478 W/m 2,5 C 15,7 C
18.09.2019 13:25 15,8 C 16,6 C 16,3 C 40 % 1025 hPa 0,0 l/m 8,4 km/h (2 Bft) N 355 0 min 25,0 klux 167 W/m 2,2 C 15,8 C
18.09.2019 13:21 16,0 C 16,6 C 16,3 C 42 % 1025 hPa 0,0 l/m 12,6 km/h (3 Bft) N 355 5 min 57,7 klux 374 W/m 3,1 C 16,0 C
18.09.2019 13:16 16,3 C 16,6 C 16,2 C 40 % 1025 hPa 0,0 l/m 11,8 km/h (2 Bft) N22.5 355 5 min 57,7 klux 375 W/m 2,7 C 16,3 C
18.09.2019 13:11 16,0 C 16,6 C 16,3 C 42 % 1025 hPa 0,0 l/m 10,9 km/h (2 Bft) N45 355 6 min 80,4 klux 519 W/m 3,1 C 16,0 C
18.09.2019 13:05 15,6 C 16,6 C 16,3 C 45 % 1025 hPa 0,0 l/m 11,7 km/h (2 Bft) N45 355 5 min 80,4 klux 519 W/m 3,7 C 15,6 C
18.09.2019 13:00 15,2 C 16,6 C 16,3 C 45 % 1025 hPa 0,0 l/m 9,4 km/h (2 Bft) N 355 4 min 76,1 klux 491 W/m 3,4 C 15,2 C
18.09.2019 12:56 15,0 C 16,6 C 16,3 C 45 % 1025 hPa 0,0 l/m 6,2 km/h (2 Bft) N22.5 355 0 min 35,3 klux 232 W/m 3,2 C 15,0 C
18.09.2019 12:51 15,0 C 16,6 C 16,3 C 45 % 1025 hPa 0,0 l/m 9,9 km/h (2 Bft) N22.5 355 6 min 77,0 klux 496 W/m 3,2 C 15,0 C
18.09.2019 12:45 15,0 C 16,7 C 16,2 C 47 % 1025 hPa 0,0 l/m 5,0 km/h (1 Bft) N 355 5 min 56,1 klux 363 W/m 3,8 C 15,0 C
18.09.2019 12:40 14,6 C 16,6 C 16,3 C 47 % 1025 hPa 0,0 l/m 7,7 km/h (2 Bft) N 355 4 min 69,7 klux 448 W/m 3,4 C 14,6 C
18.09.2019 12:36 14,2 C 16,6 C 16,4 C 50 % 1025 hPa 0,0 l/m 5,6 km/h (1 Bft) N22.5 355 6 min 67,7 klux 434 W/m 3,9 C 14,2 C
18.09.2019 12:30 14,0 C 16,6 C 16,3 C 51 % 1025 hPa 0,0 l/m 6,7 km/h (2 Bft) N 355 5 min 67,7 klux 433 W/m 4,0 C 14,0 C
18.09.2019 12:25 13,8 C 16,7 C 16,3 C 50 % 1025 hPa 0,0 l/m 8,9 km/h (2 Bft) N 355 4 min 53,1 klux 340 W/m 3,6 C 13,8 C
18.09.2019 12:21 13,8 C 16,7 C 16,3 C 49 % 1025 hPa 0,0 l/m 11,5 km/h (2 Bft) N 355 0 min 23,2 klux 153 W/m 3,3 C 13,8 C
18.09.2019 12:16 13,9 C 16,6 C 16,3 C 52 % 1025 hPa 0,0 l/m 7,3 km/h (2 Bft) N22.5 355 6 min 69,5 klux 439 W/m 4,2 C 13,9 C
18.09.2019 12:10 13,6 C 16,7 C 16,3 C 51 % 1025 hPa 0,0 l/m 7,3 km/h (2 Bft) N22.5 355 5 min 68,2 klux 428 W/m 3,7 C 13,6 C
18.09.2019 12:05 13,3 C 16,6 C 16,3 C 53 % 1025 hPa 0,0 l/m 9,9 km/h (2 Bft) N22.5 360 4 min 50,9 klux 320 W/m 3,9 C 13,3 C
18.09.2019 12:01 13,0 C 16,7 C 16,3 C 54 % 1025 hPa 0,0 l/m 10,5 km/h (2 Bft) N22.5 355 5 min 65,3 klux 406 W/m 3,9 C 13,0 C
18.09.2019 11:56 13,0 C 16,7 C 16,4 C 56 % 1025 hPa 0,0 l/m 11,1 km/h (2 Bft) N 355 6 min 64,7 klux 400 W/m 4,4 C 13,0 C
18.09.2019 11:50 12,8 C 16,6 C 16,3 C 55 % 1025 hPa 0,0 l/m 8,3 km/h (2 Bft) N22.5 355 4 min 62,9 klux 386 W/m 4,0 C 12,8 C
18.09.2019 11:46 12,6 C 16,6 C 16,4 C 57 % 1025 hPa 0,0 l/m 12,0 km/h (2 Bft) N22.5 355 5 min 59,9 klux 366 W/m 4,3 C 12,6 C
18.09.2019 11:41 12,5 C 16,7 C 16,4 C 58 % 1025 hPa 0,0 l/m 11,5 km/h (2 Bft) N 355 5 min 59,9 klux 363 W/m 4,5 C 12,5 C
18.09.2019 11:36 12,2 C 16,6 C 16,3 C 59 % 1025 hPa 0,0 l/m 11,5 km/h (2 Bft) N 355 6 min 58,6 klux 352 W/m 4,4 C 12,2 C
18.09.2019 11:30 12,1 C 16,7 C 16,3 C 61 % 1025 hPa 0,0 l/m 13,9 km/h (3 Bft) N22.5 360 4 min 58,6 klux 349 W/m 4,8 C 12,1 C
18.09.2019 11:26 11,8 C 16,6 C 16,4 C 63 % 1025 hPa 0,0 l/m 9,8 km/h (2 Bft) N22.5 355 5 min 58,6 klux 346 W/m 5,0 C 11,8 C
18.09.2019 11:21 11,8 C 16,7 C 16,4 C 63 % 1025 hPa 0,0 l/m 12,8 km/h (3 Bft) N22.5 355 5 min 58,7 klux 343 W/m 5,0 C 11,8 C
18.09.2019 11:16 11,7 C 16,7 C 16,4 C 64 % 1025 hPa 0,0 l/m 12,8 km/h (3 Bft) N22.5 355 6 min 39,7 klux 232 W/m 5,1 C 11,7 C
18.09.2019 11:10 11,6 C 16,6 C 16,4 C 64 % 1025 hPa 0,0 l/m 7,1 km/h (2 Bft) N 355 4 min 57,9 klux 330 W/m 5,0 C 11,6 C
18.09.2019 11:06 11,3 C 16,7 C 16,4 C 66 % 1025 hPa 0,0 l/m 7,1 km/h (2 Bft) N 355 5 min 57,9 klux 327 W/m 5,2 C 11,3 C
18.09.2019 11:01 11,0 C 16,7 C 16,3 C 68 % 1025 hPa 0,0 l/m 6,8 km/h (2 Bft) N22.5 360 6 min 55,8 klux 312 W/m 5,3 C 11,0 C
18.09.2019 10:55 10,8 C 16,6 C 16,4 C 69 % 1025 hPa 0,0 l/m 8,3 km/h (2 Bft) N22.5 355 5 min 54,3 klux 299 W/m 5,3 C 10,8 C
18.09.2019 10:50 10,7 C 16,6 C 16,4 C 69 % 1025 hPa 0,0 l/m 8,3 km/h (2 Bft) N22.5 355 4 min 53,5 klux 291 W/m 5,2 C 10,7 C
18.09.2019 10:46 10,5 C 16,7 C 16,4 C 72 % 1025 hPa 0,0 l/m 2,8 km/h (1 Bft) N 355 5 min 51,6 klux 278 W/m 5,7 C 10,5 C
18.09.2019 10:41 10,3 C 16,7 C 16,4 C 75 % 1025 hPa 0,0 l/m 1,0 km/h (0 Bft) N 355 6 min 51,6 klux 274 W/m 6,1 C 10,3 C
18.09.2019 10:35 10,1 C 16,6 C 16,4 C 75 % 1025 hPa 0,0 l/m 6,4 km/h (2 Bft) N22.5 355 5 min 50,2 klux 262 W/m 5,9 C 10,1 C
18.09.2019 10:30 9,8 C 16,7 C 16,4 C 78 % 1025 hPa 0,0 l/m 4,3 km/h (1 Bft) N 355 4 min 50,0 klux 256 W/m 6,1 C 9,8 C
18.09.2019 10:26 9,5 C 16,7 C 16,4 C 79 % 1025 hPa 0,0 l/m 4,3 km/h (1 Bft) N 355 5 min 49,5 klux 251 W/m 6,0 C 9,5 C
18.09.2019 10:21 9,4 C 16,7 C 16,4 C 80 % 1025 hPa 0,0 l/m 4,3 km/h (1 Bft) N 355 5 min 41,3 klux 207 W/m 6,1 C 9,4 C
18.09.2019 10:16 9,1 C 16,7 C 16,4 C 83 % 1025 hPa 0,0 l/m 4,3 km/h (1 Bft) N 355 6 min 47,5 klux 232 W/m 6,4 C 9,1 C
18.09.2019 10:10 8,9 C 16,7 C 16,4 C 85 % 1025 hPa 0,0 l/m 4,3 km/h (1 Bft) N 355 4 min 45,3 klux 217 W/m 6,5 C 8,9 C
18.09.2019 10:06 8,6 C 16,7 C 16,3 C 87 % 1025 hPa 0,0 l/m 6,4 km/h (2 Bft) N 355 5 min 45,3 klux 214 W/m 6,6 C 7,8 C
18.09.2019 10:01 8,5 C 16,6 C 16,4 C 88 % 1025 hPa 0,0 l/m 6,6 km/h (2 Bft) N22.5 355 6 min 43,7 klux 202 W/m 6,6 C 7,6 C
18.09.2019 09:55 8,2 C 16,6 C 16,4 C 89 % 1025 hPa 0,0 l/m 0,6 km/h (0 Bft) N22.5 355 4 min 42,3 klux 191 W/m 6,5 C 8,2 C
18.09.2019 09:51 8,0 C 16,7 C 16,4 C 91 % 1025 hPa 0,0 l/m 2,0 km/h (1 Bft) N 355 5 min 40,8 klux 181 W/m 6,6 C 8,0 C
18.09.2019 09:46 7,9 C 16,7 C 16,4 C 92 % 1025 hPa 0,0 l/m 0,6 km/h (0 Bft) N22.5 355 5 min 41,4 klux 180 W/m 6,7 C 7,9 C
18.09.2019 09:41 7,7 C 16,7 C 16,4 C 93 % 1025 hPa 0,0 l/m 7,9 km/h (2 Bft) N 355 6 min 38,7 klux 164 W/m 6,6 C 6,3 C
18.09.2019 09:35 7,5 C 16,6 C 16,5 C 94 % 1025 hPa 0,0 l/m 3,4 km/h (1 Bft) N22.5 355 5 min 40,6 klux 167 W/m 6,6 C 7,5 C
18.09.2019 09:30 7,3 C 16,7 C 16,4 C 95 % 1025 hPa 0,0 l/m 0,1 km/h (0 Bft) N22.5 355 4 min 38,6 klux 155 W/m 6,6 C 7,3 C
18.09.2019 09:26 7,1 C 16,7 C 16,4 C 96 % 1025 hPa 0,0 l/m 5,6 km/h (1 Bft) N 350 5 min 37,0 klux 146 W/m 6,5 C 6,3 C
18.09.2019 09:21 6,9 C 16,7 C 16,4 C 97 % 1025 hPa 0,0 l/m 5,6 km/h (1 Bft) N 350 6 min 36,3 klux 139 W/m 6,5 C 6,0 C
18.09.2019 09:15 6,7 C 16,7 C 16,4 C 97 % 1025 hPa 0,0 l/m 6,5 km/h (2 Bft) N22.5 355 5 min 34,7 klux 129 W/m 6,3 C 5,5 C
18.09.2019 09:10 6,5 C 16,7 C 16,5 C 98 % 1025 hPa 0,0 l/m 6,5 km/h (2 Bft) N22.5 355 4 min 34,7 klux 125 W/m 6,2 C 5,3 C
18.09.2019 09:06 6,2 C 16,7 C 16,4 C 98 % 1025 hPa 0,0 l/m 3,1 km/h (1 Bft) N 355 6 min 33,1 klux 116 W/m 5,9 C 6,2 C
18.09.2019 09:00 6,0 C 16,7 C 16,5 C 98 % 1025 hPa 0,0 l/m 3,1 km/h (1 Bft) N 355 5 min 31,5 klux 107 W/m 5,7 C 6,0 C
18.09.2019 08:55 5,9 C 16,6 C 16,5 C 98 % 1025 hPa 0,0 l/m 3,1 km/h (1 Bft) N 355 4 min 29,4 klux 97 W/m 5,6 C 5,9 C
18.09.2019 08:51 5,5 C 16,7 C 16,4 C 98 % 1025 hPa 0,0 l/m 3,1 km/h (1 Bft) N 355 5 min 24,2 klux 79 W/m 5,2 C 5,5 C
18.09.2019 08:46 5,3 C 16,7 C 16,5 C 98 % 1025 hPa 0,0 l/m 0,0 km/h (0 Bft) N 355 0 min 9,6 klux 33 W/m 5,0 C 5,3 C
18.09.2019 08:41 5,2 C 16,7 C 16,5 C 97 % 1025 hPa 0,0 l/m 0,0 km/h (0 Bft) N 355 0 min 9,6 klux 32 W/m 4,8 C 5,2 C
18.09.2019 08:35 5,1 C 16,7 C 16,5 C 97 % 1025 hPa 0,0 l/m 0,0 km/h (0 Bft) N 355 0 min 10,3 klux 33 W/m 4,7 C 5,1 C
18.09.2019 08:31 5,0 C 16,7 C 16,5 C 97 % 1025 hPa 0,0 l/m 0,0 km/h (0 Bft) N 355 0 min 9,6 klux 30 W/m 4,6 C 5,0 C
18.09.2019 08:26 4,9 C 16,7 C 16,4 C 96 % 1025 hPa 0,0 l/m 0,1 km/h (0 Bft) N 355 0 min 12,8 klux 38 W/m 4,3 C 4,9 C
18.09.2019 08:21 4,8 C 16,7 C 16,4 C 96 % 1025 hPa 0,0 l/m 2,2 km/h (1 Bft) N22.5 350 0 min 10,5 klux 30 W/m 4,2 C 4,8 C
18.09.2019 08:15 4,7 C 16,7 C 16,4 C 95 % 1025 hPa 0,0 l/m 0,0 km/h (0 Bft) N 355 0 min 7,10 klux 19 W/m 4,0 C 4,7 C
18.09.2019 08:11 4,6 C 16,7 C 16,5 C 95 % 1025 hPa 0,0 l/m 0,0 km/h (0 Bft) N 355 0 min 7,19 klux 19 W/m 3,9 C 4,6 C
18.09.2019 08:06 4,5 C 16,7 C 16,5 C 95 % 1024 hPa 0,0 l/m 0,0 km/h (0 Bft) N 355 0 min 7,25 klux 18 W/m 3,8 C 4,5 C
18.09.2019 08:00 4,5 C 16,7 C 16,5 C 95 % 1024 hPa 0,0 l/m 0,0 km/h (0 Bft) N 355 0 min 6,64 klux 15 W/m 3,8 C 4,5 C
18.09.2019 07:56 4,4 C 16,6 C 16,6 C 94 % 1024 hPa 0,0 l/m 0,0 km/h (0 Bft) N 355 0 min 6,43 klux 14 W/m 3,5 C 4,4 C
18.09.2019 07:51 4,4 C 16,6 C 16,5 C 94 % 1024 hPa 0,0 l/m 0,0 km/h (0 Bft) N 355 0 min 7,14 klux 15 W/m 3,5 C 4,4 C
18.09.2019 07:45 4,4 C 16,6 C 16,5 C 94 % 1024 hPa 0,0 l/m 0,0 km/h (0 Bft) N 355 0 min 7,14 klux 14 W/m 3,5 C 4,4 C
18.09.2019 07:40 4,4 C 16,6 C 16,5 C 94 % 1024 hPa 0,0 l/m 0,0 km/h (0 Bft) N 355 4 min 8,63 klux 15 W/m 3,5 C 4,4 C
18.09.2019 07:36 4,4 C 16,7 C 16,5 C 94 % 1024 hPa 0,0 l/m 0,0 km/h (0 Bft) N 355 5 min 9,8 klux 16 W/m 3,5 C 4,4 C
18.09.2019 07:31 4,4 C 16,7 C 16,5 C 93 % 1024 hPa 0,0 l/m 0,0 km/h (0 Bft) N 355 6 min 7,97 klux 12 W/m 3,4 C 4,4 C
18.09.2019 07:25 4,4 C 16,6 C 16,5 C 93 % 1024 hPa 0,0 l/m 0,0 km/h (0 Bft) N 355 5 min 6,00 klux 8 W/m 3,4 C 4,4 C
18.09.2019 07:20 4,4 C 16,6 C 16,5 C 93 % 1024 hPa 0,0 l/m 0,0 km/h (0 Bft) N 355 4 min 4,49 klux 6 W/m 3,4 C 4,4 C
18.09.2019 07:16 4,4 C 16,7 C 16,6 C 92 % 1024 hPa 0,0 l/m 0,0 km/h (0 Bft) N 355 5 min 3,77 klux 4 W/m 3,2 C 4,4 C
18.09.2019 07:11 4,4 C 16,7 C 16,5 C 91 % 1024 hPa 0,0 l/m 0,0 km/h (0 Bft) N 355 0 min 2,04 klux 2 W/m 3,1 C 4,4 C
18.09.2019 07:06 4,5 C 16,7 C 16,5 C 91 % 1024 hPa 0,0 l/m 0,0 km/h (0 Bft) N 355 0 min 533 lux 0 W/m 3,2 C 4,5 C
18.09.2019 07:01 4,5 C 16,7 C 16,6 C 91 % 1024 hPa 0,0 l/m 0,0 km/h (0 Bft) N 355 0 min 533 lux 0 W/m 3,2 C 4,5 C
18.09.2019 06:56 4,5 C 16,7 C 16,5 C 90 % 1024 hPa 0,0 l/m 0,0 km/h (0 Bft) N 355 0 min 533 lux 0 W/m 3,0 C 4,5 C
18.09.2019 06:50 4,6 C 16,7 C 16,5 C 89 % 1024 hPa 0,0 l/m 0,0 km/h (0 Bft) N 355 0 min 404 lux 0 W/m 2,9 C 4,6 C
18.09.2019 06:45 4,6 C 16,7 C 16,6 C 89 % 1024 hPa 0,0 l/m 0,0 km/h (0 Bft) N 355 0 min 215 lux 0 W/m 2,9 C 4,6 C
18.09.2019 06:41 4,6 C 16,7 C 16,5 C 89 % 1024 hPa 0,0 l/m 0,0 km/h (0 Bft) N 355 0 min 103 lux 0 W/m 2,9 C 4,6 C
18.09.2019 06:36 4,7 C 16,7 C 16,5 C 88 % 1024 hPa 0,0 l/m 0,0 km/h (0 Bft) N 355 0 min 0 lux 0 W/m 2,9 C 4,7 C
18.09.2019 06:31 4,7 C 16,7 C 16,6 C 88 % 1024 hPa 0,0 l/m 0,0 km/h (0 Bft) N67.5 360 0 min 0 lux 0 W/m 2,9 C 4,7 C
18.09.2019 06:25 4,8 C 16,6 C 16,5 C 88 % 1024 hPa 0,0 l/m 0,0 km/h (0 Bft) N67.5 360 0 min 0 lux 0 W/m 3,0 C 4,8 C
18.09.2019 06:21 5,0 C 16,6 C 16,5 C 88 % 1024 hPa 0,0 l/m 0,1 km/h (0 Bft) N 355 0 min 0 lux 0 W/m 3,2 C 5,0 C
18.09.2019 06:16 5,0 C 16,7 C 16,6 C 88 % 1024 hPa 0,0 l/m 0,1 km/h (0 Bft) N 355 0 min 0 lux 0 W/m 3,2 C 5,0 C
18.09.2019 06:11 5,1 C 16,7 C 16,5 C 88 % 1023 hPa 0,0 l/m 0,1 km/h (0 Bft) N 355 0 min 0 lux 0 W/m 3,3 C 5,1 C
18.09.2019 06:05 5,2 C 16,7 C 16,5 C 87 % 1023 hPa 0,0 l/m 0,1 km/h (0 Bft) N 355 0 min 0 lux 0 W/m 3,2 C 5,2 C
18.09.2019 06:01 5,2 C 16,7 C 16,6 C 87 % 1023 hPa 0,0 l/m 0,1 km/h (0 Bft) N 355 0 min 0 lux 0 W/m 3,2 C 5,2 C
18.09.2019 05:56 5,2 C 16,7 C 16,6 C 87 % 1023 hPa 0,0 l/m 0,0 km/h (0 Bft) N22.5 355 0 min 0 lux 0 W/m 3,2 C 5,2 C
18.09.2019 05:50 5,3 C 16,7 C 16,7 C 86 % 1023 hPa 0,0 l/m 0,0 km/h (0 Bft) N 355 0 min 0 lux 0 W/m 3,2 C 5,3 C
18.09.2019 05:46 5,3 C 16,7 C 16,6 C 86 % 1023 hPa 0,0 l/m 0,0 km/h (0 Bft) N45 350 0 min 0 lux 0 W/m 3,2 C 5,3 C
18.09.2019 05:41 5,4 C 16,6 C 16,6 C 85 % 1023 hPa 0,0 l/m 0,0 km/h (0 Bft) N45 350 0 min 0 lux 0 W/m 3,1 C 5,4 C
18.09.2019 05:36 5,5 C 16,6 C 16,6 C 85 % 1023 hPa 0,0 l/m 3,5 km/h (1 Bft) N22.5 350 0 min 0 lux 0 W/m 3,2 C 5,5 C
18.09.2019 05:30 5,6 C 16,6 C 16,6 C 85 % 1023 hPa 0,0 l/m 3,5 km/h (1 Bft) N22.5 350 0 min 0 lux 0 W/m 3,3 C 5,6 C
18.09.2019 05:25 5,6 C 16,6 C 16,6 C 85 % 1023 hPa 0,0 l/m 3,5 km/h (1 Bft) N22.5 350 0 min 0 lux 0 W/m 3,3 C 5,6 C
18.09.2019 05:21 5,7 C 16,7 C 16,6 C 84 % 1023 hPa 0,0 l/m 3,5 km/h (1 Bft) N22.5 350 0 min 0 lux 0 W/m 3,2 C 5,7 C
18.09.2019 05:16 5,8 C 16,7 C 16,6 C 83 % 1023 hPa 0,0 l/m 3,5 km/h (1 Bft) N22.5 350 0 min 0 lux 0 W/m 3,1 C 5,8 C
18.09.2019 05:10 5,8 C 16,7 C 16,6 C 83 % 1023 hPa 0,0 l/m 3,5 km/h (1 Bft) N22.5 350 0 min 0 lux 0 W/m 3,1 C 5,8 C
18.09.2019 05:05 5,8 C 16,7 C 16,6 C 83 % 1023 hPa 0,0 l/m 3,5 km/h (1 Bft) N22.5 350 0 min 0 lux 0 W/m 3,1 C 5,8 C
18.09.2019 05:01 6,0 C 16,7 C 16,6 C 82 % 1023 hPa 0,0 l/m 3,5 km/h (1 Bft) N22.5 350 0 min 0 lux 0 W/m 3,2 C 6,0 C
18.09.2019 04:56 6,0 C 16,7 C 16,6 C 82 % 1023 hPa 0,0 l/m 3,5 km/h (1 Bft) N22.5 350 0 min 0 lux 0 W/m 3,2 C 6,0 C
18.09.2019 04:50 6,1 C 16,6 C 16,6 C 81 % 1023 hPa 0,0 l/m 3,5 km/h (1 Bft) N22.5 350 0 min 0 lux 0 W/m 3,1 C 6,1 C
18.09.2019 04:46 6,2 C 16,6 C 16,6 C 80 % 1023 hPa 0,0 l/m 3,5 km/h (1 Bft) N22.5 350 0 min 0 lux 0 W/m 3,0 C 6,2 C
18.09.2019 04:41 6,3 C 16,7 C 16,6 C 79 % 1023 hPa 0,0 l/m 3,5 km/h (1 Bft) N22.5 350 0 min 0 lux 0 W/m 2,9 C 6,3 C
18.09.2019 04:36 6,4 C 16,7 C 16,6 C 79 % 1023 hPa 0,0 l/m 3,5 km/h (1 Bft) N22.5 350 0 min 0 lux 0 W/m 3,0 C 6,4 C
18.09.2019 04:30 6,5 C 16,7 C 16,6 C 78 % 1023 hPa 0,0 l/m 3,5 km/h (1 Bft) N22.5 350 0 min 0 lux 0 W/m 2,9 C 6,5 C
18.09.2019 04:26 6,6 C 16,7 C 16,6 C 78 % 1023 hPa 0,0 l/m 3,5 km/h (1 Bft) N22.5 350 0 min 0 lux 0 W/m 3,0 C 6,6 C
18.09.2019 04:21 6,8 C 16,6 C 16,6 C 77 % 1023 hPa 0,0 l/m 3,5 km/h (1 Bft) N22.5 350 0 min 0 lux 0 W/m 3,1 C 6,8 C
18.09.2019 04:15 6,9 C 16,6 C 16,6 C 77 % 1023 hPa 0,0 l/m 3,5 km/h (1 Bft) N22.5 350 0 min 0 lux 0 W/m 3,2 C 6,9 C
18.09.2019 04:10 7,1 C 16,7 C 16,7 C 76 % 1023 hPa 0,0 l/m 3,5 km/h (1 Bft) N22.5 350 0 min 0 lux 0 W/m 3,2 C 7,1 C
18.09.2019 04:06 7,3 C 16,7 C 16,6 C 77 % 1023 hPa 0,0 l/m 3,5 km/h (1 Bft) N22.5 350 0 min 0 lux 0 W/m 3,5 C 7,3 C
18.09.2019 04:00 7,3 C 16,7 C 16,7 C 77 % 1023 hPa 0,0 l/m 3,5 km/h (1 Bft) N22.5 350 0 min 0 lux 0 W/m 3,5 C 7,3 C
18.09.2019 03:55 7,5 C 16,7 C 16,7 C 76 % 1023 hPa 0,0 l/m 0,0 km/h (0 Bft) N 350 0 min 0 lux 0 W/m 3,5 C 7,5 C
18.09.2019 03:51 7,5 C 16,7 C 16,6 C 75 % 1023 hPa 0,0 l/m 0,4 km/h (0 Bft) N22.5 350 0 min 0 lux 0 W/m 3,4 C 7,5 C
18.09.2019 03:46 7,5 C 16,7 C 16,7 C 75 % 1023 hPa 0,0 l/m 0,0 km/h (0 Bft) N22.5 355 0 min 0 lux 0 W/m 3,4 C 7,5 C
18.09.2019 03:41 7,6 C 16,7 C 16,7 C 75 % 1023 hPa 0,0 l/m 0,0 km/h (0 Bft) N22.5 355 0 min 0 lux 0 W/m 3,5 C 7,6 C
18.09.2019 03:35 7,7 C 16,6 C 16,7 C 74 % 1023 hPa 0,0 l/m 0,0 km/h (0 Bft) N 350 0 min 0 lux 0 W/m 3,4 C 7,7 C
18.09.2019 03:31 7,8 C 16,6 C 16,7 C 74 % 1023 hPa 0,0 l/m 0,0 km/h (0 Bft) N 350 0 min 0 lux 0 W/m 3,5 C 7,8 C
18.09.2019 03:26 7,9 C 16,7 C 16,7 C 72 % 1023 hPa 0,0 l/m 0,0 km/h (0 Bft) N 350 0 min 0 lux 0 W/m 3,2 C 7,9 C
18.09.2019 03:21 8,0 C 16,7 C 16,7 C 72 % 1023 hPa 0,0 l/m 0,0 km/h (0 Bft) N 350 0 min 0 lux 0 W/m 3,3 C 8,0 C
18.09.2019 03:15 8,1 C 16,7 C 16,6 C 72 % 1023 hPa 0,0 l/m 0,0 km/h (0 Bft) N 350 0 min 0 lux 0 W/m 3,4 C 8,1 C
18.09.2019 03:11 8,2 C 16,6 C 16,7 C 71 % 1023 hPa 0,0 l/m 0,0 km/h (0 Bft) N 350 0 min 0 lux 0 W/m 3,3 C 8,2 C
18.09.2019 03:06 8,5 C 16,7 C 16,7 C 69 % 1023 hPa 0,0 l/m 4,5 km/h (1 Bft) N 355 0 min 0 lux 0 W/m 3,1 C 8,5 C
18.09.2019 03:00 8,5 C 16,6 C 16,7 C 69 % 1023 hPa 0,0 l/m 4,5 km/h (1 Bft) N 355 0 min 0 lux 0 W/m 3,1 C 8,5 C
18.09.2019 02:56 8,6 C 16,7 C 16,7 C 68 % 1022 hPa 0,0 l/m 4,5 km/h (1 Bft) N 355 0 min 0 lux 0 W/m 3,0 C 8,6 C
18.09.2019 02:51 8,8 C 16,7 C 16,7 C 68 % 1022 hPa 0,0 l/m 4,5 km/h (1 Bft) N 355 0 min 0 lux 0 W/m 3,2 C 8,8 C
18.09.2019 02:45 9,0 C 16,7 C 16,7 C 67 % 1022 hPa 0,0 l/m 4,5 km/h (1 Bft) N 355 0 min 0 lux 0 W/m 3,2 C 9,0 C
18.09.2019 02:40 9,0 C 16,6 C 16,7 C 67 % 1022 hPa 0,0 l/m 4,5 km/h (1 Bft) N 355 0 min 0 lux 0 W/m 3,2 C 9,0 C
18.09.2019 02:36 9,2 C 16,6 C 16,7 C 66 % 1022 hPa 0,0 l/m 4,5 km/h (1 Bft) N 355 0 min 0 lux 0 W/m 3,2 C 9,2 C
18.09.2019 02:31 9,4 C 16,6 C 16,7 C 65 % 1022 hPa 0,0 l/m 4,5 km/h (1 Bft) N 355 0 min 0 lux 0 W/m 3,2 C 9,4 C
18.09.2019 02:25 9,4 C 16,6 C 16,7 C 65 % 1022 hPa 0,0 l/m 4,5 km/h (1 Bft) N 355 0 min 0 lux 0 W/m 3,2 C 9,4 C
18.09.2019 02:20 9,5 C 16,7 C 16,7 C 64 % 1022 hPa 0,0 l/m 5,4 km/h (1 Bft) N 355 0 min 0 lux 0 W/m 3,0 C 9,1 C
18.09.2019 02:16 9,6 C 16,7 C 16,7 C 63 % 1022 hPa 0,0 l/m 5,4 km/h (1 Bft) N 355 0 min 0 lux 0 W/m 2,9 C 9,2 C
18.09.2019 02:11 9,7 C 16,7 C 16,7 C 63 % 1022 hPa 0,0 l/m 5,4 km/h (1 Bft) N 355 0 min 0 lux 0 W/m 3,0 C 9,3 C
18.09.2019 02:06 9,8 C 16,7 C 16,7 C 63 % 1022 hPa 0,0 l/m 1,0 km/h (0 Bft) N 355 0 min 0 lux 0 W/m 3,1 C 9,8 C
18.09.2019 02:01 9,9 C 16,7 C 16,7 C 62 % 1022 hPa 0,0 l/m 0,9 km/h (0 Bft) N 355 0 min 0 lux 0 W/m 3,0 C 9,9 C
18.09.2019 01:56 10,1 C 16,6 C 16,7 C 62 % 1022 hPa 0,0 l/m 0,7 km/h (0 Bft) N 355 0 min 0 lux 0 W/m 3,2 C 10,1 C
18.09.2019 01:51 10,1 C 16,6 C 16,7 C 62 % 1022 hPa 0,0 l/m 6,3 km/h (2 Bft) N 355 0 min 0 lux 0 W/m 3,2 C 10,1 C
18.09.2019 01:45 10,2 C 16,6 C 16,7 C 61 % 1022 hPa 0,0 l/m 5,6 km/h (1 Bft) N 355 0 min 0 lux 0 W/m 3,0 C 10,2 C
18.09.2019 01:41 10,2 C 16,7 C 16,6 C 62 % 1022 hPa 0,0 l/m 0,7 km/h (0 Bft) N 355 0 min 0 lux 0 W/m 3,3 C 10,2 C
18.09.2019 01:36 10,3 C 16,7 C 16,7 C 62 % 1022 hPa 0,0 l/m 7,9 km/h (2 Bft) N 355 0 min 0 lux 0 W/m 3,3 C 10,3 C
18.09.2019 01:31 10,4 C 16,6 C 16,7 C 62 % 1022 hPa 0,0 l/m 0,7 km/h (0 Bft) N 355 0 min 0 lux 0 W/m 3,4 C 10,4 C
18.09.2019 01:25 10,5 C 16,6 C 16,6 C 62 % 1022 hPa 0,0 l/m 0,8 km/h (0 Bft) N 355 0 min 0 lux 0 W/m 3,5 C 10,5 C
18.09.2019 01:20 10,6 C 16,6 C 16,7 C 62 % 1022 hPa 0,0 l/m 6,3 km/h (2 Bft) N 355 0 min 0 lux 0 W/m 3,6 C 10,6 C
18.09.2019 01:16 10,7 C 16,6 C 16,7 C 62 % 1022 hPa 0,0 l/m 6,3 km/h (2 Bft) N 355 0 min 0 lux 0 W/m 3,7 C 10,7 C
18.09.2019 01:11 10,8 C 16,6 C 16,6 C 63 % 1022 hPa 0,0 l/m 1,6 km/h (1 Bft) N 355 0 min 0 lux 0 W/m 4,0 C 10,8 C
18.09.2019 01:05 10,9 C 16,7 C 16,7 C 64 % 1022 hPa 0,0 l/m 1,6 km/h (1 Bft) N 355 0 min 0 lux 0 W/m 4,4 C 10,9 C
18.09.2019 01:01 10,9 C 16,7 C 16,7 C 64 % 1021 hPa 0,0 l/m 5,6 km/h (1 Bft) N 355 0 min 0 lux 0 W/m 4,4 C 10,9 C
18.09.2019 00:56 11,0 C 16,7 C 16,7 C 64 % 1021 hPa 0,0 l/m 6,7 km/h (2 Bft) N 355 0 min 0 lux 0 W/m 4,5 C 11,0 C
18.09.2019 00:50 11,2 C 16,7 C 16,8 C 65 % 1021 hPa 0,0 l/m 8,3 km/h (2 Bft) N 355 0 min 0 lux 0 W/m 4,9 C 11,2 C
18.09.2019 00:45 11,2 C 16,6 C 16,7 C 65 % 1021 hPa 0,0 l/m 7,1 km/h (2 Bft) N 355 0 min 0 lux 0 W/m 4,9 C 11,2 C
18.09.2019 00:41 11,3 C 16,7 C 16,7 C 65 % 1021 hPa 0,0 l/m 5,4 km/h (1 Bft) N 355 0 min 0 lux 0 W/m 5,0 C 11,3 C
18.09.2019 00:36 11,3 C 16,6 C 16,7 C 65 % 1021 hPa 0,0 l/m 7,0 km/h (2 Bft) N22.5 355 0 min 0 lux 0 W/m 5,0 C 11,3 C
18.09.2019 00:31 11,4 C 16,6 C 16,7 C 65 % 1021 hPa 0,0 l/m 4,5 km/h (1 Bft) N 355 0 min 0 lux 0 W/m 5,1 C 11,4 C
18.09.2019 00:25 11,5 C 16,6 C 16,7 C 65 % 1021 hPa 0,0 l/m 3,3 km/h (1 Bft) N 355 0 min 0 lux 0 W/m 5,2 C 11,5 C
18.09.2019 00:21 11,6 C 16,7 C 16,7 C 65 % 1021 hPa 0,0 l/m 3,3 km/h (1 Bft) N 355 0 min 0 lux 0 W/m 5,2 C 11,6 C
18.09.2019 00:16 11,6 C 16,7 C 16,7 C 65 % 1021 hPa 0,0 l/m 1,4 km/h (1 Bft) N 355 0 min 0 lux 0 W/m 5,2 C 11,6 C
18.09.2019 00:11 11,7 C 16,7 C 16,7 C 64 % 1021 hPa 0,0 l/m 1,5 km/h (1 Bft) N 360 0 min 0 lux 0 W/m 5,1 C 11,7 C
18.09.2019 00:05 11,8 C 16,6 C 16,7 C 64 % 1021 hPa 0,0 l/m 0,0 km/h (0 Bft) N 355 0 min 0 lux 0 W/m 5,2 C 11,8 C
18.09.2019 00:01 11,9 C 16,7 C 16,7 C 63 % 1021 hPa 0,0 l/m 0,0 km/h (0 Bft) N 355 0 min 0 lux 0 W/m 5,1 C 11,9 C
_ Min-Zeit 07:11 00:05 20:11 17:01 00:01 - 00:01 - - - - - 17:16 07:11
Minimum _ 4,4 C 16,6 C 16,0 C 24 % 1021 hPa - 0,0 km/h (0 Bft) - - - - - -1,5 C 4,4 C
_ Max-Zeit 16:55 00:01 00:50 08:46 08:11 00:01 14:16 - - 07:31 13:05 13:05 09:46 16:55
Maximum _ 20,0 C 16,7 C 16,8 C 98 % 1025 hPa 0,0 l/m 18,5 km/h
N (3 Bft)
- - 6 min 80,4 klux 519 W/m 6,7 C 20,0 C
Durchschnitt _ 11,5 C 16,6 C 16,4 C 61 % 1023 hPa #0,0 l/m 4,6 km/h (1 Bft) N - #9:09 h 21,6 klux 198 W/m 2,9 C 11,5 C